Time;durP1;ratioP1;P1;durP2;ratioP2;P2;SDS_P1;SDS_P2;PMS_P1;PMS_P2;Temp;Humidity;BMP_temperature;BMP_pressure;BME280_temperature;BME280_humidity;BME280_pressure;Samples;Min_cycle;Max_cycle;Signal;HPM_P1;HPM_P2
2023/09/28 00:02:49;;;;;;;3.58;2.20;;;;;;;25.26;51.81;99671.00;5094869;28;20048;-72
2023/09/28 00:05:16;;;;;;;4.20;2.92;;;;;;;25.25;51.58;99670.19;5095000;28;20020;-72
2023/09/28 00:07:42;;;;;;;4.50;2.55;;;;;;;25.24;51.97;99673.81;5094703;28;20028;-72
2023/09/28 00:10:12;;;;;;;4.22;2.70;;;;;;;25.25;51.50;99672.00;5094763;28;20043;-72
2023/09/28 00:12:40;;;;;;;3.67;2.42;;;;;;;25.24;51.73;99673.81;5094503;28;20032;-72
2023/09/28 00:15:07;;;;;;;3.50;2.53;;;;;;;25.25;51.80;99669.31;5094870;28;20486;-73
2023/09/28 00:17:33;;;;;;;4.88;2.40;;;;;;;25.23;52.08;99668.59;5094401;28;20481;-73
2023/09/28 00:19:58;;;;;;;4.07;2.65;;;;;;;25.22;52.24;99665.06;5094613;28;20114;-72
2023/09/28 00:22:24;;;;;;;4.22;2.70;;;;;;;25.23;52.33;99660.59;5092184;28;20131;-73
2023/09/28 00:24:49;;;;;;;4.70;2.72;;;;;;;25.23;51.89;99656.06;5094141;28;20039;-73
2023/09/28 00:27:15;;;;;;;5.30;3.00;;;;;;;25.20;52.32;99651.84;5094340;28;20032;-72
2023/09/28 00:29:40;;;;;;;5.32;2.83;;;;;;;25.21;52.09;99642.00;5094245;28;20483;-72
2023/09/28 00:32:06;;;;;;;4.93;2.80;;;;;;;25.18;52.29;99643.09;5094443;28;20034;-72
2023/09/28 00:34:32;;;;;;;6.22;2.95;;;;;;;25.19;52.00;99642.09;5094439;28;20484;-72
2023/09/28 00:36:57;;;;;;;5.22;3.00;;;;;;;25.20;52.21;99646.50;5094387;28;20452;-73
2023/09/28 00:39:23;;;;;;;4.45;2.88;;;;;;;25.18;52.30;99645.75;5094253;28;20111;-72
2023/09/28 00:41:48;;;;;;;4.90;2.95;;;;;;;25.17;52.03;99641.38;5093700;28;20400;-73
2023/09/28 00:44:15;;;;;;;4.05;2.90;;;;;;;25.16;52.51;99650.38;5094094;28;20043;-72
2023/09/28 00:46:41;;;;;;;5.63;2.90;;;;;;;25.16;52.56;99645.03;5092874;28;20678;-73
2023/09/28 00:49:07;;;;;;;7.18;3.70;;;;;;;25.17;52.53;99657.41;5093841;28;20073;-72
2023/09/28 00:51:33;;;;;;;4.13;2.70;;;;;;;25.15;52.49;99656.69;5094116;28;20024;-72
2023/09/28 00:54:05;;;;;;;5.75;3.38;;;;;;;25.16;52.67;99654.84;5093671;28;20028;-72
2023/09/28 00:56:31;;;;;;;5.57;2.75;;;;;;;25.13;53.00;99653.25;5085902;28;20032;-72
2023/09/28 00:58:59;;;;;;;5.45;3.20;;;;;;;25.13;52.76;99647.91;5082631;28;20024;-72
2023/09/28 01:01:28;;;;;;;4.75;3.00;;;;;;;25.13;52.53;99642.56;5093792;28;20020;-72
2023/09/28 01:03:56;;;;;;;6.07;3.28;;;;;;;25.13;53.00;99644.41;5093604;28;20089;-72
2023/09/28 01:06:25;;;;;;;5.10;3.78;;;;;;;25.12;52.65;99643.56;5093701;28;20028;-73
2023/09/28 01:08:52;;;;;;;5.45;3.42;;;;;;;25.11;52.75;99652.53;5093438;28;20158;-71
2023/09/28 01:11:20;;;;;;;5.68;3.15;;;;;;;25.09;53.23;99654.47;5093015;28;20016;-73
2023/09/28 01:13:46;;;;;;;5.80;3.60;;;;;;;25.09;52.82;99654.47;5093374;28;20024;-72
2023/09/28 01:16:13;;;;;;;6.22;3.55;;;;;;;25.09;53.10;99648.28;5093241;28;20484;-70
2023/09/28 01:18:38;;;;;;;4.55;3.20;;;;;;;25.10;53.02;99658.84;5093537;28;20024;-73
2023/09/28 01:21:06;;;;;;;5.80;3.20;;;;;;;25.10;53.17;99661.50;5093325;28;20077;-72
2023/09/28 01:23:32;;;;;;;6.13;3.45;;;;;;;25.09;53.12;99659.81;5093109;28;20046;-72
2023/09/28 01:25:57;;;;;;;6.18;3.50;;;;;;;25.08;53.23;99663.44;5091730;28;20480;-72
2023/09/28 01:28:22;;;;;;;6.68;4.18;;;;;;;25.09;53.36;99662.50;5093275;28;20020;-72
2023/09/28 01:30:49;;;;;;;5.20;3.58;;;;;;;25.08;53.35;99652.75;5093159;28;20542;-72
2023/09/28 01:33:15;;;;;;;5.18;3.55;;;;;;;25.06;53.18;99660.03;5093066;28;20062;-72
2023/09/28 01:35:40;;;;;;;6.40;3.75;;;;;;;25.04;53.34;99652.13;5091843;28;20051;-73
2023/09/28 01:38:29;;;;;;;5.68;3.30;;;;;;;25.06;53.19;99654.69;5093190;28;20388;-73
2023/09/28 01:40:54;;;;;;;5.82;3.50;;;;;;;25.05;53.11;99658.34;5092521;28;20488;-72
2023/09/28 01:43:20;;;;;;;6.97;3.92;;;;;;;25.04;53.26;99656.63;5091860;28;20020;-73
2023/09/28 01:45:45;;;;;;;5.38;3.50;;;;;;;25.04;53.32;99651.31;5092748;28;20024;-72
2023/09/28 01:48:11;;;;;;;6.40;3.78;;;;;;;25.04;53.40;99651.31;5092697;28;20381;-72
2023/09/28 01:50:37;;;;;;;5.85;3.70;;;;;;;25.02;53.29;99647.88;5091793;28;20115;-72
2023/09/28 01:53:02;;;;;;;4.88;3.25;;;;;;;25.03;53.52;99652.28;5092790;28;20032;-72
2023/09/28 01:55:28;;;;;;;5.72;3.40;;;;;;;25.02;53.61;99653.22;5094491;28;20101;-71
2023/09/28 01:57:54;;;;;;;5.13;3.40;;;;;;;25.02;53.16;99653.22;5113185;28;20031;-72
2023/09/28 02:00:21;;;;;;;5.57;4.00;;;;;;;25.00;53.43;99652.50;5093100;28;20032;-73
2023/09/28 02:02:47;;;;;;;5.55;3.70;;;;;;;25.00;53.29;99655.16;5092509;28;20047;-73
2023/09/28 02:05:17;;;;;;;7.65;4.07;;;;;;;25.00;53.40;99653.34;5092652;28;20040;-72
2023/09/28 02:07:44;;;;;;;6.82;3.47;;;;;;;25.01;53.45;99651.53;5092513;28;20041;-72
2023/09/28 02:10:10;;;;;;;5.97;3.35;;;;;;;25.00;53.27;99650.69;5092179;28;20028;-72
2023/09/28 02:12:39;;;;;;;5.70;3.90;;;;;;;25.00;53.54;99655.16;5092703;28;20065;-72
2023/09/28 02:15:07;;;;;;;7.07;3.78;;;;;;;24.98;53.57;99649.09;5092500;28;20024;-73
2023/09/28 02:17:32;;;;;;;5.38;3.47;;;;;;;24.96;53.70;99653.69;5092615;28;20103;-73
2023/09/28 02:19:58;;;;;;;6.30;3.50;;;;;;;24.97;53.42;99650.03;5092447;28;20028;-73
2023/09/28 02:22:23;;;;;;;6.60;3.65;;;;;;;24.97;53.39;99655.38;5092397;28;20123;-73
2023/09/28 02:24:50;;;;;;;5.82;3.67;;;;;;;24.98;53.45;99657.09;5092031;28;20020;-72
2023/09/28 02:27:17;;;;;;;5.25;3.70;;;;;;;24.96;53.61;99659.00;5092059;28;20705;-72
2023/09/28 02:29:46;;;;;;;7.20;3.75;;;;;;;24.96;53.46;99659.00;5090267;28;20016;-73
2023/09/28 02:32:14;;;;;;;6.18;4.00;;;;;;;24.94;53.62;99668.00;5087516;28;20044;-72
2023/09/28 02:34:40;;;;;;;5.60;3.90;;;;;;;24.93;53.60;99652.94;5090777;28;20109;-71
2023/09/28 02:37:06;;;;;;;6.47;3.95;;;;;;;24.93;53.60;99666.31;5092174;28;20476;-72
2023/09/28 02:39:34;;;;;;;6.43;3.90;;;;;;;24.92;53.78;99653.94;5091511;28;20407;-72
2023/09/28 02:42:00;;;;;;;6.15;3.50;;;;;;;24.92;53.95;99663.72;5092081;28;20099;-73
2023/09/28 02:44:25;;;;;;;6.60;4.60;;;;;;;24.94;53.36;99662.66;5090718;28;20111;-71
2023/09/28 02:46:50;;;;;;;6.03;3.97;;;;;;;24.92;53.63;99656.59;5093772;28;20024;-73
2023/09/28 02:49:16;;;;;;;7.70;4.03;;;;;;;24.92;53.89;99669.94;5096353;28;20065;-72
2023/09/28 02:51:43;;;;;;;7.28;4.53;;;;;;;24.90;53.61;99661.19;5096303;28;20395;-72
2023/09/28 02:54:08;;;;;;;5.57;3.47;;;;;;;24.91;53.81;99665.56;5096012;28;20095;-73
2023/09/28 02:56:34;;;;;;;6.50;4.10;;;;;;;24.90;53.81;99663.84;5096575;28;20092;-73
2023/09/28 02:58:59;;;;;;;6.30;3.85;;;;;;;24.89;53.94;99659.47;5094923;28;20024;-72
2023/09/28 03:01:26;;;;;;;5.95;3.78;;;;;;;24.88;53.68;99657.78;5095749;28;20023;-73
2023/09/28 03:03:53;;;;;;;6.43;4.00;;;;;;;24.89;53.48;99655.97;5095816;28;20040;-72
2023/09/28 03:06:20;;;;;;;5.38;3.67;;;;;;;24.89;53.98;99659.47;5095802;28;20441;-73
2023/09/28 03:08:46;;;;;;;5.72;4.07;;;;;;;24.89;54.05;99658.66;5095732;28;20407;-72
2023/09/28 03:11:13;;;;;;;6.03;3.60;;;;;;;24.90;53.75;99661.19;5095804;28;20411;-72
2023/09/28 03:13:39;;;;;;;6.45;4.10;;;;;;;24.87;53.99;99653.41;5095991;28;20026;-72
2023/09/28 03:16:05;;;;;;;7.03;3.78;;;;;;;24.90;53.47;99655.00;5095897;28;20016;-72
2023/09/28 03:18:30;;;;;;;6.78;3.92;;;;;;;24.87;53.77;99656.09;5095659;28;20028;-72
2023/09/28 03:20:55;;;;;;;6.05;3.42;;;;;;;24.88;53.70;99665.78;5095360;28;20085;-71
2023/09/28 03:23:21;;;;;;;6.07;3.90;;;;;;;24.86;53.83;99662.41;5095882;28;20027;-72
2023/09/28 03:25:47;;;;;;;6.78;4.03;;;;;;;24.87;53.64;99661.41;5095680;28;20495;-72
2023/09/28 03:28:13;;;;;;;6.22;3.83;;;;;;;24.86;53.90;99659.72;5095580;28;20136;-73
2023/09/28 03:30:39;;;;;;;6.88;4.20;;;;;;;24.86;53.48;99658.84;5095696;28;20024;-72
2023/09/28 03:33:04;;;;;;;6.78;4.07;;;;;;;24.85;54.06;99658.03;5095413;28;20051;-72
2023/09/28 03:35:30;;;;;;;5.10;3.22;;;;;;;24.87;53.62;99661.41;5095265;28;20030;-72
2023/09/28 03:37:59;;;;;;;7.05;4.15;;;;;;;24.84;53.70;99650.97;5095518;28;20032;-72
2023/09/28 03:40:34;;;;;;;6.75;4.13;;;;;;;24.86;54.02;99659.72;5095400;28;20097;-72
2023/09/28 03:43:01;;;;;;;6.57;3.83;;;;;;;24.82;53.80;99644.91;5095185;28;20024;-73
2023/09/28 03:45:26;;;;;;;8.80;4.30;;;;;;;24.84;53.95;99648.28;5095399;28;20098;-73
2023/09/28 03:47:52;;;;;;;5.38;4.30;;;;;;;24.85;53.77;99646.47;5095000;28;20157;-73
2023/09/28 03:50:19;;;;;;;6.13;3.97;;;;;;;24.84;53.87;99645.63;5094783;28;20082;-73
2023/09/28 03:52:45;;;;;;;7.95;4.40;;;;;;;24.83;54.16;99649.25;5093929;28;20028;-73
2023/09/28 03:55:12;;;;;;;5.32;4.00;;;;;;;24.83;53.83;99643.94;5094845;28;20047;-72
2023/09/28 03:57:38;;;;;;;7.35;4.15;;;;;;;24.83;53.65;99648.44;5113756;28;20023;-73
2023/09/28 04:00:04;;;;;;;7.70;4.30;;;;;;;24.83;53.83;99638.59;5099656;28;20024;-72
2023/09/28 04:02:30;;;;;;;6.75;4.30;;;;;;;24.82;53.91;99639.56;5094859;28;20111;-73
2023/09/28 04:04:58;;;;;;;6.55;4.18;;;;;;;24.82;53.79;99647.56;5094523;28;20047;-73
2023/09/28 04:07:24;;;;;;;7.20;4.13;;;;;;;24.83;53.76;99649.25;5093660;28;20063;-73
2023/09/28 04:09:50;;;;;;;8.43;4.30;;;;;;;24.83;53.73;99643.94;5086157;28;20111;-72
2023/09/28 04:12:15;;;;;;;5.60;4.30;;;;;;;24.82;53.70;99647.56;5073205;28;20028;-72
2023/09/28 04:14:41;;;;;;;6.90;4.07;;;;;;;24.83;53.89;99649.25;5074527;28;20020;-73
2023/09/28 04:17:06;;;;;;;7.15;4.53;;;;;;;24.81;54.02;99648.53;5074425;28;20020;-73
2023/09/28 04:19:32;;;;;;;6.30;4.40;;;;;;;24.80;54.00;99639.63;5084644;28;20032;-72
2023/09/28 04:21:57;;;;;;;5.25;3.78;;;;;;;24.81;53.96;99645.88;5094651;28;20115;-73
2023/09/28 04:24:22;;;;;;;6.05;3.63;;;;;;;24.81;53.93;99645.88;5094354;28;20027;-72
2023/09/28 04:26:48;;;;;;;6.57;4.32;;;;;;;24.83;53.91;99648.44;5094376;28;20066;-73
2023/09/28 04:29:13;;;;;;;6.40;4.43;;;;;;;24.82;54.09;99647.56;5094418;28;20023;-72
2023/09/28 04:31:40;;;;;;;6.80;4.53;;;;;;;24.81;53.96;99643.19;5094349;28;20027;-73
2023/09/28 04:34:07;;;;;;;6.45;3.80;;;;;;;24.80;53.81;99644.97;5094251;28;20028;-71
2023/09/28 04:36:32;;;;;;;6.05;3.95;;;;;;;24.82;53.93;99636.88;5094149;28;20028;-72
2023/09/28 04:38:58;;;;;;;6.38;4.40;;;;;;;24.79;53.97;99642.44;5092508;28;20391;-72
2023/09/28 04:41:23;;;;;;;7.45;4.15;;;;;;;24.79;54.01;99643.28;5094461;28;20120;-72
2023/09/28 04:43:49;;;;;;;7.10;4.50;;;;;;;24.80;53.92;99644.13;5094085;28;20020;-73
2023/09/28 04:46:14;;;;;;;5.60;4.00;;;;;;;24.82;53.92;99636.88;5091698;28;20086;-72
2023/09/28 04:48:39;;;;;;;7.38;4.00;;;;;;;24.81;53.66;99640.53;5093651;28;20028;-72
2023/09/28 04:51:05;;;;;;;7.55;4.38;;;;;;;24.79;53.79;99637.09;5093759;28;20116;-72
2023/09/28 04:53:30;;;;;;;5.90;4.13;;;;;;;24.81;53.94;99645.88;5093928;28;20036;-72
2023/09/28 04:55:56;;;;;;;6.63;4.10;;;;;;;24.80;53.80;99633.47;5093767;28;20024;-72
2023/09/28 04:58:21;;;;;;;8.55;4.20;;;;;;;24.79;53.95;99637.09;5093813;28;20053;-73
2023/09/28 05:00:47;;;;;;;6.68;4.47;;;;;;;24.77;54.11;99639.88;5092368;28;20115;-73
2023/09/28 05:03:12;;;;;;;7.10;4.40;;;;;;;24.78;53.82;99640.72;5093562;28;20048;-73
2023/09/28 05:05:37;;;;;;;7.55;4.20;;;;;;;24.79;53.80;99647.78;5093618;28;20035;-73
2023/09/28 05:08:03;;;;;;;6.28;4.00;;;;;;;24.75;54.02;99647.13;5090213;28;20032;-74
2023/09/28 05:10:29;;;;;;;6.78;4.50;;;;;;;24.77;53.89;99639.00;5088347;28;20035;-73
2023/09/28 05:12:55;;;;;;;7.22;4.38;;;;;;;24.77;54.20;99641.69;5093381;28;20028;-72
2023/09/28 05:15:20;;;;;;;7.80;4.28;;;;;;;24.78;54.33;99635.38;5093540;28;20078;-74
2023/09/28 05:17:45;;;;;;;6.60;4.53;;;;;;;24.76;54.78;99642.66;5093132;28;20030;-72
2023/09/28 05:20:11;;;;;;;6.88;4.18;;;;;;;24.76;54.50;99643.50;5093343;28;20081;-77
2023/09/28 05:22:37;;;;;;;9.13;4.60;;;;;;;24.75;54.84;99643.63;5087286;28;20103;-77
2023/09/28 05:25:05;;;;;;;6.97;4.38;;;;;;;24.78;54.53;99638.03;5086226;28;20084;-77
2023/09/28 05:27:30;;;;;;;6.70;4.03;;;;;;;24.78;54.92;99638.03;5089017;28;20047;-76
2023/09/28 05:29:56;;;;;;;10.38;4.25;;;;;;;24.78;55.08;99635.38;5089405;28;20468;-76
2023/09/28 05:32:22;;;;;;;7.80;4.03;;;;;;;24.79;54.83;99637.09;5079058;28;20036;-77
2023/09/28 05:34:48;;;;;;;7.05;4.10;;;;;;;24.77;54.91;99631.00;5077977;28;20031;-77
2023/09/28 05:37:13;;;;;;;6.38;4.25;;;;;;;24.75;55.22;99636.44;5089643;28;20036;-77
2023/09/28 05:39:39;;;;;;;8.95;4.10;;;;;;;24.77;54.95;99633.69;5090933;28;20031;-77
2023/09/28 05:42:05;;;;;;;7.80;4.32;;;;;;;24.78;55.07;99630.91;5093273;28;20103;-77
2023/09/28 05:44:31;;;;;;;10.43;4.20;;;;;;;24.78;55.37;99630.03;5092956;28;20035;-77
2023/09/28 05:46:56;;;;;;;8.45;4.00;;;;;;;24.77;54.89;99628.34;5086050;28;20035;-76
2023/09/28 05:49:22;;;;;;;8.13;4.18;;;;;;;24.76;55.09;99637.31;5083328;28;20024;-76
2023/09/28 05:51:47;;;;;;;8.57;4.43;;;;;;;24.74;54.99;99639.25;5082994;28;20028;-75
2023/09/28 05:54:13;;;;;;;10.20;4.57;;;;;;;24.75;54.71;99638.28;5091333;28;20060;-76
2023/09/28 05:56:38;;;;;;;9.65;5.00;;;;;;;24.77;55.09;99637.22;5092619;28;20028;-76
2023/09/28 05:59:04;;;;;;;6.85;3.78;;;;;;;24.75;55.03;99646.28;5092933;28;20036;-75
2023/09/28 06:01:30;;;;;;;8.57;4.45;;;;;;;24.77;54.98;99647.03;5092403;28;20020;-76
2023/09/28 06:03:55;;;;;;;9.98;4.63;;;;;;;24.77;54.69;99639.88;5092282;28;20068;-76
2023/09/28 06:06:22;;;;;;;8.27;4.40;;;;;;;24.77;55.01;99639.00;5091299;28;20028;-76
2023/09/28 06:08:48;;;;;;;10.63;4.40;;;;;;;24.78;54.81;99635.38;5092659;28;20031;-76
2023/09/28 06:11:14;;;;;;;8.32;4.60;;;;;;;24.77;54.91;99636.34;5092515;28;20403;-76
2023/09/28 06:13:41;;;;;;;10.15;4.90;;;;;;;24.78;54.75;99635.38;5092116;28;20469;-76
2023/09/28 06:16:09;;;;;;;9.77;5.20;;;;;;;24.77;54.54;99633.69;5092175;28;20024;-76
2023/09/28 06:18:36;;;;;;;9.65;5.13;;;;;;;24.78;54.54;99635.38;5091005;28;20020;-76
2023/09/28 06:21:01;;;;;;;8.27;5.00;;;;;;;24.76;54.63;99637.31;5091531;28;20020;-76
2023/09/28 06:23:27;;;;;;;11.80;4.68;;;;;;;24.75;54.74;99638.28;5091120;28;20028;-76
2023/09/28 06:25:52;;;;;;;9.18;4.97;;;;;;;24.77;54.60;99639.00;5092181;28;20019;-76
2023/09/28 06:28:18;;;;;;;8.57;4.78;;;;;;;24.78;54.32;99641.56;5092096;28;20058;-76
2023/09/28 06:30:44;;;;;;;10.05;5.07;;;;;;;24.80;54.26;99644.13;5092025;28;20024;-76
2023/09/28 06:33:09;;;;;;;9.52;4.35;;;;;;;24.78;54.52;99630.91;5092303;28;20023;-76
2023/09/28 06:35:35;;;;;;;8.60;4.50;;;;;;;24.79;54.36;99626.44;5092300;28;20460;-76
2023/09/28 06:38:00;;;;;;;9.38;5.53;;;;;;;24.78;54.21;99632.69;5092340;28;20103;-76
2023/09/28 06:40:26;;;;;;;8.82;5.00;;;;;;;24.80;54.37;99644.13;5092132;28;20388;-76
2023/09/28 06:42:52;;;;;;;9.73;5.00;;;;;;;24.81;54.16;99640.53;5092039;28;20055;-76
2023/09/28 06:45:18;;;;;;;11.75;5.13;;;;;;;24.82;54.08;99634.22;5091869;28;20031;-76
2023/09/28 06:47:43;;;;;;;8.93;4.85;;;;;;;24.83;53.96;99637.75;5092331;28;20051;-76
2023/09/28 06:50:10;;;;;;;7.90;4.88;;;;;;;24.83;53.92;99638.59;5092339;28;20489;-76
2023/09/28 06:52:36;;;;;;;7.75;5.00;;;;;;;24.82;53.88;99636.88;5091793;28;20028;-76
2023/09/28 06:55:04;;;;;;;8.02;5.30;;;;;;;24.82;54.11;99636.88;5091850;28;20024;-76
2023/09/28 06:57:30;;;;;;;7.35;4.85;;;;;;;24.83;53.89;99633.25;5092074;28;20043;-76
2023/09/28 06:59:55;;;;;;;9.10;4.88;;;;;;;24.83;53.77;99633.25;5091956;28;20024;-76
2023/09/28 07:02:21;;;;;;;7.82;4.93;;;;;;;24.85;53.56;99636.69;5090350;28;20028;-75
2023/09/28 07:04:46;;;;;;;8.10;4.95;;;;;;;24.83;54.04;99640.41;5092170;28;20103;-75
2023/09/28 07:07:16;;;;;;;6.40;4.53;;;;;;;24.83;53.58;99646.59;5091926;28;20032;-76
2023/09/28 07:09:43;;;;;;;9.32;4.72;;;;;;;24.84;53.45;99648.28;5091778;28;20028;-76
2023/09/28 07:12:10;;;;;;;7.90;5.03;;;;;;;24.84;53.56;99648.28;5091572;28;20028;-76
2023/09/28 07:14:36;;;;;;;7.95;4.70;;;;;;;24.82;53.85;99642.22;5091658;28;20086;-76
2023/09/28 07:17:02;;;;;;;6.97;4.20;;;;;;;24.82;53.79;99647.56;5091974;28;20483;-76
2023/09/28 07:19:27;;;;;;;6.60;4.43;;;;;;;24.83;53.72;99651.94;5091904;28;20028;-75
2023/09/28 07:21:53;;;;;;;9.02;4.78;;;;;;;24.83;53.54;99649.25;5091510;28;20073;-76
2023/09/28 07:24:19;;;;;;;7.00;4.50;;;;;;;24.84;53.69;99650.97;5091786;28;20028;-76
2023/09/28 07:26:46;;;;;;;6.90;4.65;;;;;;;24.83;53.39;99654.59;5124493;28;20036;-76
2023/09/28 07:29:12;;;;;;;8.82;4.85;;;;;;;24.83;53.48;99654.59;5091336;28;20020;-76
2023/09/28 07:31:38;;;;;;;7.40;5.05;;;;;;;24.83;53.75;99659.94;5092503;28;20042;-76
2023/09/28 07:34:03;;;;;;;7.13;4.28;;;;;;;24.82;53.72;99652.91;5095747;28;20480;-75
2023/09/28 07:36:29;;;;;;;8.45;4.40;;;;;;;24.84;53.21;99661.63;5093881;28;20407;-76
2023/09/28 07:38:54;;;;;;;6.68;4.28;;;;;;;24.84;53.49;99660.81;5095289;28;20020;-76
2023/09/28 07:41:21;;;;;;;6.45;4.10;;;;;;;24.84;53.53;99655.47;5095468;28;20557;-76
2023/09/28 07:43:46;;;;;;;7.60;4.65;;;;;;;24.83;53.25;99649.25;5094716;28;20028;-76
2023/09/28 07:46:13;;;;;;;6.30;4.00;;;;;;;24.84;53.30;99656.28;5094983;28;20055;-76
2023/09/28 07:48:38;;;;;;;8.77;4.68;;;;;;;24.86;53.26;99654.38;5095385;28;20643;-76
2023/09/28 07:51:04;;;;;;;6.90;4.53;;;;;;;24.85;53.19;99658.03;5093735;28;20115;-75
2023/09/28 07:53:31;;;;;;;6.43;4.35;;;;;;;24.86;53.44;99659.72;5095278;28;20043;-76
2023/09/28 07:55:56;;;;;;;7.28;4.15;;;;;;;24.83;53.23;99654.59;5094921;28;20022;-76
2023/09/28 07:58:22;;;;;;;7.20;4.53;;;;;;;24.82;53.20;99655.56;5094493;28;20024;-76
2023/09/28 08:00:48;;;;;;;5.60;3.75;;;;;;;24.83;53.37;99662.59;5093522;28;20459;-76
2023/09/28 08:03:13;;;;;;;7.60;4.07;;;;;;;24.83;53.57;99664.44;5094860;28;20048;-75
2023/09/28 08:05:39;;;;;;;7.57;4.35;;;;;;;24.83;53.50;99654.59;5094769;28;20052;-75
2023/09/28 08:08:05;;;;;;;6.65;3.92;;;;;;;24.83;53.31;99659.09;5094821;28;20067;-76
2023/09/28 08:10:32;;;;;;;7.47;4.30;;;;;;;24.84;53.15;99661.63;5094738;28;20119;-75
2023/09/28 08:12:59;;;;;;;7.00;4.13;;;;;;;24.82;53.45;99660.91;5094331;28;20107;-76
2023/09/28 08:15:24;;;;;;;8.13;4.20;;;;;;;24.84;53.40;99658.97;5094656;28;20047;-76
2023/09/28 08:17:50;;;;;;;7.40;4.40;;;;;;;24.85;53.30;99667.84;5094682;28;20062;-76
2023/09/28 08:20:16;;;;;;;7.80;4.50;;;;;;;24.86;53.30;99665.06;5094674;28;20498;-76
2023/09/28 08:22:42;;;;;;;7.25;4.40;;;;;;;24.86;53.29;99670.41;5094585;28;20024;-76
2023/09/28 08:25:08;;;;;;;7.25;4.18;;;;;;;24.88;53.12;99660.44;5094359;28;20035;-76
2023/09/28 08:27:33;;;;;;;6.10;3.90;;;;;;;24.89;53.33;99667.47;5094101;28;20031;-75
2023/09/28 08:29:59;;;;;;;6.55;3.80;;;;;;;24.89;53.04;99672.81;5094385;28;20491;-76
2023/09/28 08:32:24;;;;;;;5.53;3.80;;;;;;;24.90;53.01;99671.00;5093866;28;20016;-76
2023/09/28 08:34:49;;;;;;;7.35;4.28;;;;;;;24.89;52.83;99664.81;5094398;28;20031;-76
2023/09/28 08:37:15;;;;;;;7.93;4.97;;;;;;;24.87;52.86;99661.41;5094352;28;20024;-76
2023/09/28 08:39:40;;;;;;;7.28;4.35;;;;;;;24.88;52.98;99668.47;5094004;28;20387;-76
2023/09/28 08:42:11;;;;;;;5.55;3.97;;;;;;;24.87;52.96;99666.75;5092745;28;20048;-75
2023/09/28 08:44:38;;;;;;;6.53;4.35;;;;;;;24.87;53.05;99666.75;5093052;28;20031;-76
2023/09/28 08:47:14;;;;;;;7.75;4.68;;;;;;;24.88;53.19;99662.25;5094166;28;20032;-76
2023/09/28 08:49:40;;;;;;;;;;;;;;;24.89;53.09;99661.31;5094610;28;20513;-76
2023/09/28 08:52:06;;;;;;;7.43;4.40;;;;;;;24.87;53.19;99663.22;5094023;28;20287;-76
2023/09/28 08:54:32;;;;;;;7.32;4.18;;;;;;;24.88;53.11;99656.91;5093631;28;20031;-76
2023/09/28 08:56:59;;;;;;;6.10;4.20;;;;;;;24.88;52.88;99652.44;5093672;28;20115;-76
2023/09/28 08:59:28;;;;;;;6.97;4.38;;;;;;;24.88;52.84;99657.78;5093833;28;20030;-75
2023/09/28 09:01:54;;;;;;;7.13;4.30;;;;;;;24.89;52.95;99661.31;5093866;28;20012;-76
2023/09/28 09:04:20;;;;;;;7.05;4.18;;;;;;;24.89;53.02;99659.47;5093648;28;20040;-76
2023/09/28 09:06:47;;;;;;;5.38;4.03;;;;;;;24.91;53.15;99646.88;5093903;28;20111;-75
2023/09/28 09:09:15;;;;;;;7.28;4.60;;;;;;;24.92;52.91;99645.06;5093146;28;20070;-76
2023/09/28 09:11:49;;;;;;;7.22;4.32;;;;;;;24.91;53.10;99641.56;5093669;28;20119;-76
2023/09/28 09:14:15;;;;;;;6.40;3.88;;;;;;;24.92;52.83;99637.91;5093631;28;20132;-76
2023/09/28 09:16:41;;;;;;;6.72;4.20;;;;;;;24.95;52.85;99644.84;5093513;28;20497;-76
2023/09/28 09:19:07;;;;;;;7.38;4.32;;;;;;;24.95;52.82;99636.81;5093346;28;20051;-76
2023/09/28 09:21:40;;;;;;;7.63;4.40;;;;;;;24.97;52.85;99634.03;5092192;28;20071;-76
2023/09/28 09:24:10;;;;;;;5.65;3.58;;;;;;;24.96;52.67;99629.66;5093173;28;20023;-75
2023/09/28 09:26:43;;;;;;;6.43;4.13;;;;;;;24.98;52.70;99625.06;5093371;28;20028;-77
2023/09/28 09:29:13;;;;;;;6.95;4.38;;;;;;;24.97;53.03;99618.88;5091475;28;20032;-76
2023/09/28 09:31:40;;;;;;;6.78;4.60;;;;;;;24.97;52.99;99618.88;5093216;28;20028;-75
2023/09/28 09:34:26;;;;;;;5.72;3.92;;;;;;;24.99;52.90;99624.09;5093379;28;20436;-76
2023/09/28 09:36:58;;;;;;;6.95;4.00;;;;;;;24.99;53.16;99610.75;5092744;28;20388;-76
2023/09/28 09:39:26;;;;;;;6.47;3.83;;;;;;;24.99;52.74;99610.75;5092798;28;20024;-76
2023/09/28 09:41:55;;;;;;;6.72;4.38;;;;;;;25.01;53.03;99611.47;5093048;28;20020;-75
2023/09/28 09:44:21;;;;;;;6.82;4.28;;;;;;;25.00;52.60;99607.97;5092980;28;20102;-76
2023/09/28 09:46:49;;;;;;;6.13;3.70;;;;;;;25.01;53.15;99603.47;5093040;28;20031;-75
2023/09/28 09:49:16;;;;;;;7.53;3.78;;;;;;;25.02;52.79;99606.03;5093013;28;20039;-77
2023/09/28 09:51:47;;;;;;;6.25;3.95;;;;;;;25.01;52.95;99600.78;5092669;28;20043;-75
2023/09/28 09:54:17;;;;;;;7.20;4.30;;;;;;;25.00;52.78;99597.28;5092288;28;20038;-77
2023/09/28 09:56:53;;;;;;;6.45;4.43;;;;;;;25.00;52.78;99599.09;5091561;28;20058;-76
2023/09/28 09:59:22;;;;;;;6.22;4.30;;;;;;;25.02;53.21;99594.47;5092718;28;20115;-75
2023/09/28 10:01:50;;;;;;;7.18;4.47;;;;;;;25.03;52.77;99596.22;5092791;28;20048;-75
2023/09/28 10:04:17;;;;;;;6.88;4.10;;;;;;;25.03;52.69;99590.88;5091254;28;20058;-76
2023/09/28 10:07:00;;;;;;;7.07;4.15;;;;;;;25.03;53.03;99591.72;5104644;28;20045;-77
2023/09/28 10:09:25;;;;;;;6.90;4.43;;;;;;;25.05;53.07;99594.25;5072340;28;20032;-76
2023/09/28 10:11:52;;;;;;;6.57;3.90;;;;;;;25.05;52.79;99591.59;5084975;28;20430;-77
2023/09/28 10:14:21;;;;;;;5.95;4.18;;;;;;;25.06;52.67;99582.63;5092564;28;20028;-76
2023/09/28 10:16:51;;;;;;;6.55;4.22;;;;;;;25.06;52.76;99588.81;5092646;28;20541;-76
2023/09/28 10:19:20;;;;;;;6.78;4.63;;;;;;;25.06;52.98;99577.28;5092649;28;20431;-76
2023/09/28 10:21:46;;;;;;;7.25;4.18;;;;;;;25.08;52.78;99580.66;5092128;28;20361;-75
2023/09/28 10:24:13;;;;;;;8.15;4.53;;;;;;;25.09;52.70;99573.53;5092186;28;20506;-76
2023/09/28 10:26:50;;;;;;;6.60;4.45;;;;;;;25.09;52.88;99569.03;5092349;28;20403;-76
2023/09/28 10:29:32;;;;;;;5.82;4.00;;;;;;;25.09;53.06;99558.38;5091089;28;20046;-77
2023/09/28 10:31:58;;;;;;;6.10;4.10;;;;;;;25.10;52.63;99554.72;5092236;28;20028;-75
2023/09/28 10:34:26;;;;;;;7.35;4.45;;;;;;;25.12;52.94;99557.28;5092231;28;20024;-76
2023/09/28 10:37:11;;;;;;;7.32;4.43;;;;;;;25.12;52.95;99550.09;5091925;28;20016;-76
2023/09/28 10:39:42;;;;;;;6.75;4.60;;;;;;;25.11;52.83;99556.41;5092239;28;20103;-75
2023/09/28 10:42:12;;;;;;;6.05;4.68;;;;;;;25.13;53.12;99553.63;5091951;28;20032;-76
2023/09/28 10:45:05;;;;;;;5.60;3.92;;;;;;;25.15;53.05;99546.34;5090803;28;20032;-77
2023/09/28 10:47:32;;;;;;;6.78;4.20;;;;;;;25.15;53.11;99535.66;5089886;28;20048;-76
2023/09/28 10:50:04;;;;;;;7.68;4.60;;;;;;;25.16;52.80;99540.03;5091990;28;20024;-76
2023/09/28 10:52:30;;;;;;;5.15;3.92;;;;;;;25.17;52.73;99539.06;5091778;28;20020;-76
2023/09/28 10:54:56;;;;;;;5.57;3.95;;;;;;;25.18;53.02;99536.28;5091870;28;20093;-76
2023/09/28 10:57:31;;;;;;;7.50;4.68;;;;;;;25.18;53.02;99530.94;5091983;28;20422;-75
2023/09/28 10:59:59;;;;;;;6.82;5.05;;;;;;;25.20;52.96;99522.81;5092248;28;20016;-75
2023/09/28 11:02:24;;;;;;;6.65;4.53;;;;;;;25.22;52.83;99520.03;5091814;28;20028;-75
2023/09/28 11:04:50;;;;;;;7.82;4.40;;;;;;;25.22;52.81;99517.34;5091731;28;20047;-76
2023/09/28 11:07:16;;;;;;;5.80;4.20;;;;;;;25.24;52.75;99515.41;5093491;28;20134;-76
2023/09/28 11:09:41;;;;;;;6.65;5.00;;;;;;;25.24;52.89;99507.41;5094105;28;20500;-76
2023/09/28 11:12:10;;;;;;;8.32;4.50;;;;;;;25.25;52.86;99506.41;5096135;28;20020;-76
2023/09/28 11:14:43;;;;;;;6.60;4.13;;;;;;;25.27;53.04;99507.16;5095909;28;20028;-76
2023/09/28 11:17:09;;;;;;;5.97;4.43;;;;;;;25.27;52.84;99505.34;5095375;28;20051;-76
2023/09/28 11:19:35;;;;;;;6.70;4.60;;;;;;;25.29;53.10;99499.88;5081176;28;20088;-75
2023/09/28 11:22:00;;;;;;;6.05;4.10;;;;;;;25.29;52.84;99506.09;5095863;28;20028;-76
2023/09/28 11:24:26;;;;;;;5.75;4.25;;;;;;;25.30;52.78;99498.91;5095811;28;20031;-76
2023/09/28 11:26:52;;;;;;;6.70;4.50;;;;;;;25.31;52.76;99487.25;5094163;28;20028;-76
2023/09/28 11:29:17;;;;;;;6.88;4.30;;;;;;;25.32;53.09;99491.59;5095552;28;20020;-77
2023/09/28 11:31:50;;;;;;;5.50;4.28;;;;;;;25.33;52.80;99490.66;5095254;28;20024;-76
2023/09/28 11:34:37;;;;;;;6.10;3.85;;;;;;;25.34;52.68;99482.50;5095207;28;20032;-76